createdAt,value
2019-03-09T00:02:08.301Z,98245.04
2019-03-09T00:04:37.647Z,98240.98
2019-03-09T00:07:06.885Z,98242.08
2019-03-09T00:09:36.179Z,98238.14
2019-03-09T00:12:05.742Z,98231.02
2019-03-09T00:14:35.129Z,98235.31
2019-03-09T00:17:04.409Z,98224.61
2019-03-09T00:19:33.665Z,98218.67
2019-03-09T00:22:03.203Z,98223.36
2019-03-09T00:24:51.881Z,98227.05
2019-03-09T00:27:35.905Z,98226.52
2019-03-09T00:30:31.043Z,98216.59
2019-03-09T00:33:00.317Z,98224.55
2019-03-09T00:35:29.745Z,98229.48
2019-03-09T00:37:59.354Z,98227.70
2019-03-09T00:40:29.540Z,98224.05
2019-03-09T00:42:58.951Z,98215.68
2019-03-09T00:45:28.199Z,98216.67
2019-03-09T00:48:09.664Z,98212.61
2019-03-09T00:50:39.050Z,98207.56
2019-03-09T00:53:08.555Z,98211.50
2019-03-09T00:55:38.036Z,98208.19
2019-03-09T00:58:07.267Z,98202.66
2019-03-09T01:00:36.525Z,98197.78
2019-03-09T01:03:05.762Z,98196.30
2019-03-09T01:05:35.036Z,98189.47
2019-03-09T01:08:04.390Z,98183.52
2019-03-09T01:10:33.727Z,98180.31
2019-03-09T01:13:03.011Z,98182.41
2019-03-09T01:15:32.353Z,98186.41
2019-03-09T01:18:01.610Z,98184.11
2019-03-09T01:20:30.922Z,98179.20
2019-03-09T01:23:00.178Z,98178.41
2019-03-09T01:25:29.489Z,98181.89
2019-03-09T01:27:58.709Z,98172.06
2019-03-09T01:30:28.058Z,98174.83
2019-03-09T01:32:57.292Z,98163.06
2019-03-09T01:35:26.546Z,98159.38
2019-03-09T01:37:55.780Z,98151.02
2019-03-09T01:40:25.136Z,98152.12
2019-03-09T01:42:54.403Z,98140.53
2019-03-09T01:45:23.652Z,98131.63
2019-03-09T01:47:52.922Z,98129.44
2019-03-09T01:50:22.194Z,98126.73
2019-03-09T01:52:51.467Z,98117.41
2019-03-09T01:55:20.696Z,98123.06
2019-03-09T01:57:49.978Z,98124.97
2019-03-09T02:00:20.071Z,98129.70
2019-03-09T02:02:49.305Z,98120.05
2019-03-09T02:05:18.572Z,98124.56
2019-03-09T02:07:47.832Z,98121.71
2019-03-09T02:10:17.521Z,98118.37
2019-03-09T02:12:46.737Z,98114.38
2019-03-09T02:15:16.411Z,98103.55
2019-03-09T02:17:45.679Z,98105.15
2019-03-09T02:20:15.029Z,98097.55
2019-03-09T02:22:44.391Z,98092.38
2019-03-09T02:25:13.741Z,98093.72
2019-03-09T02:27:42.990Z,98099.07
2019-03-09T02:30:13.046Z,98096.19
2019-03-09T02:32:42.331Z,98097.82
2019-03-09T02:35:11.714Z,98091.27
2019-03-09T02:37:40.973Z,98093.97
2019-03-09T02:40:16.157Z,98089.36
2019-03-09T02:42:45.401Z,98082.55
2019-03-09T02:45:16.014Z,98082.20
2019-03-09T02:47:45.252Z,98072.58
2019-03-09T02:50:14.988Z,98067.41
2019-03-09T02:52:45.730Z,98066.67
2019-03-09T02:55:15.081Z,98051.70
2019-03-09T02:57:44.332Z,98045.11
2019-03-09T03:00:15.884Z,98040.48
2019-03-09T03:03:09.928Z,98034.97
2019-03-09T03:05:39.163Z,98033.80
2019-03-09T03:08:08.432Z,98029.10
2019-03-09T03:10:37.671Z,98023.69
2019-03-09T03:13:06.952Z,98022.95
2019-03-09T03:15:36.664Z,98021.52
2019-03-09T03:18:06.038Z,98016.43
2019-03-09T03:20:35.343Z,98018.72
2019-03-09T03:23:04.669Z,98007.33
2019-03-09T03:25:33.931Z,98001.34
2019-03-09T03:28:03.180Z,97998.24
2019-03-09T03:30:32.457Z,97998.00
2019-03-09T03:33:01.714Z,97992.82
2019-03-09T03:35:30.953Z,97981.98
2019-03-09T03:38:00.831Z,97974.34
2019-03-09T03:40:30.081Z,97977.52
2019-03-09T03:42:59.338Z,97981.45
2019-03-09T03:45:28.577Z,97972.02
2019-03-09T03:47:57.872Z,97959.22
2019-03-09T03:50:27.185Z,97960.66
2019-03-09T03:52:56.432Z,97948.83
2019-03-09T03:55:25.795Z,97958.02
2019-03-09T03:57:55.034Z,97957.30
2019-03-09T04:00:24.307Z,97963.20
2019-03-09T04:02:53.542Z,97950.84
2019-03-09T04:05:23.191Z,97954.27
2019-03-09T04:07:52.867Z,97946.78
2019-03-09T04:10:22.304Z,97948.03
2019-03-09T04:12:51.869Z,97932.92
2019-03-09T04:15:21.104Z,97930.66
2019-03-09T04:17:50.372Z,97926.31
2019-03-09T04:20:19.631Z,97930.42
2019-03-09T04:22:48.901Z,97926.52
2019-03-09T04:25:18.153Z,97920.66
2019-03-09T04:27:47.392Z,97916.43
2019-03-09T04:30:16.784Z,97913.00
2019-03-09T04:32:45.996Z,97903.05
2019-03-09T04:35:15.287Z,97898.58
2019-03-09T04:37:44.524Z,97898.16
2019-03-09T04:40:14.094Z,97887.55
2019-03-09T04:42:43.334Z,97887.16
2019-03-09T04:45:12.792Z,97899.27
2019-03-09T04:47:42.075Z,97889.39
2019-03-09T04:50:11.362Z,97883.64
2019-03-09T04:52:40.645Z,97890.48
2019-03-09T04:55:10.146Z,97894.47
2019-03-09T04:57:39.398Z,97880.92
2019-03-09T05:00:08.847Z,97878.53
2019-03-09T05:02:38.102Z,97882.66
2019-03-09T05:05:08.519Z,97883.17
2019-03-09T05:07:49.892Z,97871.57
2019-03-09T05:10:48.346Z,97894.00
2019-03-09T05:13:21.297Z,97887.76
2019-03-09T05:15:50.561Z,97881.42
2019-03-09T05:18:19.797Z,97886.08
2019-03-09T05:20:49.045Z,97885.13
2019-03-09T05:23:18.307Z,97878.17
2019-03-09T05:25:47.592Z,97876.47
2019-03-09T05:28:16.857Z,97883.25
2019-03-09T05:30:46.763Z,97879.42
2019-03-09T05:33:16.034Z,97878.36
2019-03-09T05:35:45.258Z,97869.69
2019-03-09T05:38:14.505Z,97871.58
2019-03-09T05:40:43.818Z,97869.56
2019-03-09T05:43:13.058Z,97867.44
2019-03-09T05:45:42.330Z,97869.75
2019-03-09T05:48:11.575Z,97867.20
2019-03-09T05:50:40.845Z,97871.78
2019-03-09T05:53:12.568Z,97867.20
2019-03-09T05:55:41.811Z,97870.50
2019-03-09T05:58:11.072Z,97865.16
2019-03-09T06:00:41.150Z,97873.59
2019-03-09T06:03:10.418Z,97870.11
2019-03-09T06:05:54.043Z,97870.59
2019-03-09T06:08:23.340Z,97886.44
2019-03-09T06:10:52.590Z,97894.70
2019-03-09T06:13:21.824Z,97891.52
2019-03-09T06:15:51.080Z,97902.38
2019-03-09T06:18:20.324Z,97904.62
2019-03-09T06:20:49.593Z,97907.01
2019-03-09T06:23:18.861Z,97902.00
2019-03-09T06:25:48.096Z,97920.30
2019-03-09T06:28:17.367Z,97925.90
2019-03-09T06:30:47.215Z,97925.48
2019-03-09T06:33:30.863Z,97918.03
2019-03-09T06:36:19.624Z,97919.39
2019-03-09T06:39:00.704Z,97919.69
2019-03-09T06:41:36.942Z,97924.70
2019-03-09T06:44:06.223Z,97927.91
2019-03-09T06:46:35.488Z,97930.21
2019-03-09T06:49:04.761Z,97939.53
2019-03-09T06:51:34.026Z,97943.78
2019-03-09T06:54:03.300Z,97935.31
2019-03-09T06:56:40.429Z,97950.71
2019-03-09T06:59:08.774Z,97951.89
2019-03-09T07:01:38.002Z,97959.47
2019-03-09T07:04:07.269Z,97961.80
2019-03-09T07:06:36.534Z,97971.88
2019-03-09T07:09:06.698Z,97974.64
2019-03-09T07:11:35.988Z,97978.30
2019-03-09T07:14:40.415Z,97972.11
2019-03-09T07:17:09.693Z,97993.77
2019-03-09T07:19:38.950Z,97991.50
2019-03-09T07:22:08.192Z,97992.99
2019-03-09T07:24:37.447Z,98005.67
2019-03-09T07:27:06.684Z,98013.98
2019-03-09T07:29:35.966Z,98002.42
2019-03-09T07:32:05.210Z,98022.05
2019-03-09T07:34:34.465Z,98029.43
2019-03-09T07:37:04.383Z,98019.34
2019-03-09T07:39:33.637Z,98033.38
2019-03-09T07:42:02.894Z,98024.27
2019-03-09T07:44:32.221Z,98049.48
2019-03-09T07:47:01.618Z,98052.03
2019-03-09T07:49:30.851Z,98055.19
2019-03-09T07:52:00.087Z,98049.31
2019-03-09T07:54:29.347Z,98045.77
2019-03-09T07:56:58.594Z,98054.53
2019-03-09T07:59:27.853Z,98052.85
2019-03-09T08:01:57.104Z,98060.14
2019-03-09T08:04:26.377Z,98069.95
2019-03-09T08:06:55.621Z,98066.77
2019-03-09T08:09:24.910Z,98080.09
2019-03-09T08:11:54.169Z,98091.50
2019-03-09T08:14:23.415Z,98099.73
2019-03-09T08:16:52.681Z,98091.59
2019-03-09T08:19:21.947Z,98088.47
2019-03-09T08:21:51.215Z,98091.62
2019-03-09T08:24:20.453Z,98081.80
2019-03-09T08:26:49.753Z,98077.95
2019-03-09T08:29:18.976Z,98081.86
2019-03-09T08:31:48.223Z,98064.71
2019-03-09T08:34:17.651Z,98073.77
2019-03-09T08:36:46.886Z,98068.92
2019-03-09T08:39:16.172Z,98069.73
2019-03-09T08:41:45.416Z,98084.81
2019-03-09T08:44:14.669Z,98083.45
2019-03-09T08:46:43.929Z,98083.45
2019-03-09T08:49:13.164Z,98091.94
2019-03-09T08:51:42.493Z,98101.13
2019-03-09T08:54:11.705Z,98097.50
2019-03-09T08:56:40.967Z,98085.55
2019-03-09T08:59:10.228Z,98088.27
2019-03-09T09:01:39.570Z,98093.28
2019-03-09T09:04:08.840Z,98097.11
2019-03-09T09:06:38.146Z,98092.80
2019-03-09T09:09:08.285Z,98094.84
2019-03-09T09:11:37.529Z,98091.83
2019-03-09T09:14:06.844Z,98094.61
2019-03-09T09:16:36.166Z,98095.63
2019-03-09T09:19:05.421Z,98085.34
2019-03-09T09:21:34.709Z,98100.42
2019-03-09T09:24:04.017Z,98093.92
2019-03-09T09:26:33.341Z,98097.16
2019-03-09T09:29:02.586Z,98087.41
2019-03-09T09:31:31.847Z,98094.96
2019-03-09T09:34:01.120Z,98095.43
2019-03-09T09:36:30.375Z,98095.39
2019-03-09T09:38:59.685Z,98100.25
2019-03-09T09:41:28.927Z,98097.63
2019-03-09T09:43:58.194Z,98077.73
2019-03-09T09:46:27.527Z,98089.71
2019-03-09T09:48:56.817Z,98090.64
2019-03-09T09:51:26.131Z,98075.44
2019-03-09T09:53:55.384Z,98089.07
2019-03-09T09:56:24.665Z,98089.91
2019-03-09T09:58:53.957Z,98107.39
2019-03-09T10:01:23.233Z,98109.91
2019-03-09T10:03:52.562Z,98100.21
2019-03-09T10:06:21.815Z,98097.31
2019-03-09T10:08:51.085Z,98106.14
2019-03-09T10:11:20.415Z,98103.22
2019-03-09T10:13:49.630Z,98123.92
2019-03-09T10:16:18.907Z,98124.73
2019-03-09T10:18:48.189Z,98129.05
2019-03-09T10:21:17.532Z,98134.96
2019-03-09T10:23:46.790Z,98139.48
2019-03-09T10:26:16.026Z,98151.73
2019-03-09T10:28:45.330Z,98150.47
2019-03-09T10:31:14.565Z,98159.67
2019-03-09T10:33:44.165Z,98159.50
2019-03-09T10:36:13.401Z,98156.34
2019-03-09T10:38:44.190Z,98157.16
2019-03-09T10:41:15.326Z,98150.67
2019-03-09T10:43:46.037Z,98157.25
2019-03-09T10:46:15.302Z,98158.86
2019-03-09T10:48:44.581Z,98152.52
2019-03-09T10:51:14.016Z,98153.64
2019-03-09T10:53:43.284Z,98152.28
2019-03-09T10:56:12.554Z,98154.52
2019-03-09T10:58:41.967Z,98153.44
2019-03-09T11:01:11.221Z,98154.81
2019-03-09T11:03:40.456Z,98146.17
2019-03-09T11:06:09.713Z,98138.66
2019-03-09T11:08:38.966Z,98132.98
2019-03-09T11:11:08.238Z,98140.02
2019-03-09T11:13:37.503Z,98140.91
2019-03-09T11:16:06.821Z,98136.58
2019-03-09T11:18:36.115Z,98137.06
2019-03-09T11:21:05.461Z,98133.34
2019-03-09T11:23:34.782Z,98133.91
2019-03-09T11:26:04.056Z,98132.09
2019-03-09T11:28:33.328Z,98134.36
2019-03-09T11:31:02.560Z,98141.06
2019-03-09T11:33:31.833Z,98138.45
2019-03-09T11:36:01.071Z,98136.41
2019-03-09T11:38:30.361Z,98143.55
2019-03-09T11:41:00.839Z,98135.25
2019-03-09T11:43:30.825Z,98135.95
2019-03-09T11:46:00.133Z,98136.61
2019-03-09T11:48:29.399Z,98131.41
2019-03-09T11:50:58.703Z,98125.29
2019-03-09T11:53:27.982Z,98135.04
2019-03-09T11:55:57.214Z,98138.11
2019-03-09T11:58:26.486Z,98122.06
2019-03-09T12:00:55.797Z,98108.40
2019-03-09T12:03:25.080Z,98101.76
2019-03-09T12:05:54.346Z,98108.70
2019-03-09T12:08:23.618Z,98114.04
2019-03-09T12:10:52.868Z,98093.34
2019-03-09T12:13:22.146Z,98101.05
2019-03-09T12:15:51.447Z,98071.88
2019-03-09T12:18:20.733Z,98079.37
2019-03-09T12:20:50.002Z,98074.78
2019-03-09T12:23:21.287Z,98067.04
2019-03-09T12:25:50.613Z,98049.37
2019-03-09T12:28:19.934Z,98060.94
2019-03-09T12:30:49.189Z,98052.36
2019-03-09T12:33:20.262Z,98033.96
2019-03-09T12:35:51.251Z,98031.23
2019-03-09T12:38:22.046Z,98044.86
2019-03-09T12:40:52.812Z,98059.06
2019-03-09T12:43:24.436Z,98062.33
2019-03-09T12:45:55.776Z,98047.81
2019-03-09T12:48:26.861Z,98063.92
2019-03-09T12:50:57.701Z,98065.05
2019-03-09T12:53:30.703Z,98073.70
2019-03-09T12:56:01.712Z,98072.97
2019-03-09T12:58:32.135Z,98042.18
2019-03-09T13:01:01.568Z,98052.02
2019-03-09T13:03:30.949Z,98058.21
2019-03-09T13:06:09.577Z,98051.20
2019-03-09T13:08:39.092Z,98056.95
2019-03-09T13:11:09.255Z,98050.51
2019-03-09T13:13:38.715Z,98061.81
2019-03-09T13:16:08.519Z,98045.78
2019-03-09T13:18:38.367Z,98047.73
2019-03-09T13:21:08.123Z,98044.45
2019-03-09T13:23:38.381Z,98044.14
2019-03-09T13:26:08.200Z,98035.02
2019-03-09T13:28:37.696Z,98032.73
2019-03-09T13:31:07.142Z,98036.25
2019-03-09T13:33:36.787Z,98025.33
2019-03-09T13:36:07.719Z,98040.03
2019-03-09T13:38:37.182Z,98049.89
2019-03-09T13:41:06.486Z,98024.66
2019-03-09T13:43:35.971Z,98007.53
2019-03-09T13:46:05.255Z,97989.80
2019-03-09T13:48:34.529Z,97997.36
2019-03-09T13:51:03.841Z,97998.28
2019-03-09T13:53:33.085Z,97989.98
2019-03-09T13:56:02.469Z,97986.73
2019-03-09T13:58:33.307Z,97986.96
2019-03-09T14:01:02.750Z,98000.14
2019-03-09T14:03:33.392Z,97989.01
2019-03-09T14:06:04.294Z,97995.48
2019-03-09T14:08:34.225Z,97985.48
2019-03-09T14:11:03.612Z,97980.56
2019-03-09T14:13:32.868Z,97971.47
2019-03-09T14:16:02.154Z,97971.48
2019-03-09T14:18:31.483Z,97957.44
2019-03-09T14:21:01.260Z,97946.95
2019-03-09T14:23:30.502Z,97938.53
2019-03-09T14:25:59.792Z,97917.63
2019-03-09T14:28:29.320Z,97913.75
2019-03-09T14:31:00.024Z,97917.50
2019-03-09T14:33:29.358Z,97908.25
2019-03-09T14:35:58.855Z,97890.86
2019-03-09T14:38:28.665Z,97895.72
2019-03-09T14:40:57.907Z,97887.06
2019-03-09T14:43:28.761Z,97864.05
2019-03-09T14:45:58.328Z,97871.64
2019-03-09T14:48:28.561Z,97874.02
2019-03-09T14:50:59.131Z,97862.69
2019-03-09T14:53:28.459Z,97857.65
2019-03-09T14:55:57.846Z,97845.59
2019-03-09T14:58:27.885Z,97833.95
2019-03-09T15:00:57.152Z,97843.28
2019-03-09T15:03:27.205Z,97841.31
2019-03-09T15:05:56.446Z,97833.89
2019-03-09T15:08:26.301Z,97819.86
2019-03-09T15:10:55.542Z,97811.52
2019-03-09T15:13:24.772Z,97802.89
2019-03-09T15:15:54.025Z,97791.33
2019-03-09T15:18:23.287Z,97792.08
2019-03-09T15:20:53.705Z,97781.66
2019-03-09T15:23:23.644Z,97774.63
2019-03-09T15:25:54.077Z,97764.44
2019-03-09T15:28:23.490Z,97748.97
2019-03-09T15:30:52.730Z,97745.73
2019-03-09T15:33:22.233Z,97745.30
2019-03-09T15:35:51.513Z,97738.20
2019-03-09T15:38:21.862Z,97736.11
2019-03-09T15:40:51.117Z,97728.27
2019-03-09T15:43:20.958Z,97731.77
2019-03-09T15:45:50.749Z,97717.84
2019-03-09T15:48:20.133Z,97709.73
2019-03-09T15:50:49.489Z,97718.55
2019-03-09T15:53:18.906Z,97707.37
2019-03-09T15:55:48.242Z,97709.86
2019-03-09T15:58:19.517Z,97689.39
2019-03-09T16:00:48.783Z,97678.82
2019-03-09T16:03:18.051Z,97678.42
2019-03-09T16:05:47.349Z,97680.66
2019-03-09T16:08:16.589Z,97656.04
2019-03-09T16:10:45.851Z,97643.42
2019-03-09T16:13:15.118Z,97647.20
2019-03-09T16:15:44.384Z,97649.80
2019-03-09T16:18:13.645Z,97657.97
2019-03-09T16:20:42.935Z,97654.55
2019-03-09T16:23:14.291Z,97673.89
2019-03-09T16:25:43.616Z,97659.20
2019-03-09T16:28:12.850Z,97651.73
2019-03-09T16:30:43.846Z,97665.45
2019-03-09T16:33:13.159Z,97661.80
2019-03-09T16:35:42.478Z,97651.12
2019-03-09T16:38:11.750Z,97607.50
2019-03-09T16:40:41.405Z,97640.66
2019-03-09T16:43:10.824Z,97614.09
2019-03-09T16:45:40.210Z,97636.39
2019-03-09T16:48:09.481Z,97637.31
2019-03-09T16:50:38.847Z,97634.36
2019-03-09T16:53:08.116Z,97621.22
2019-03-09T16:55:37.408Z,97617.56
2019-03-09T16:58:06.851Z,97638.80
2019-03-09T17:00:36.220Z,97653.92
2019-03-09T17:03:05.485Z,97638.45
2019-03-09T17:05:42.541Z,97638.45
2019-03-09T17:08:11.789Z,97625.75
2019-03-09T17:10:41.026Z,97631.42
2019-03-09T17:13:10.285Z,97645.27
2019-03-09T17:15:39.539Z,97634.36
2019-03-09T17:18:08.895Z,97621.56
2019-03-09T17:20:38.133Z,97649.02
2019-03-09T17:23:07.386Z,97663.03
2019-03-09T17:25:36.652Z,97682.17
2019-03-09T17:28:05.923Z,97678.88
2019-03-09T17:30:35.198Z,97698.31
2019-03-09T17:33:04.495Z,97694.89
2019-03-09T17:35:33.764Z,97699.98
2019-03-09T17:38:03.078Z,97698.45
2019-03-09T17:40:32.298Z,97717.98
2019-03-09T17:43:01.579Z,97730.67
2019-03-09T17:45:30.920Z,97698.73
2019-03-09T17:48:00.240Z,97692.93
2019-03-09T17:50:29.558Z,97708.67
2019-03-09T17:53:04.894Z,97715.84
2019-03-09T17:55:34.230Z,97710.75
2019-03-09T17:58:03.457Z,97704.72
2019-03-09T18:00:42.226Z,97699.97
2019-03-09T18:03:05.473Z,97715.63
2019-03-09T18:05:34.840Z,97684.22
2019-03-09T18:08:04.097Z,97710.05
2019-03-09T18:10:36.978Z,97696.63
2019-03-09T18:13:06.366Z,97695.00
2019-03-09T18:15:35.598Z,97728.45
2019-03-09T18:18:05.042Z,97702.66
2019-03-09T18:20:34.309Z,97731.38
2019-03-09T18:23:03.572Z,97738.77
2019-03-09T18:25:32.895Z,97744.36
2019-03-09T18:28:02.185Z,97729.70
2019-03-09T18:30:31.468Z,97757.77
2019-03-09T18:33:00.764Z,97779.02
2019-03-09T18:35:30.041Z,97794.72
2019-03-09T18:37:59.440Z,97786.98
2019-03-09T18:40:29.431Z,97811.09
2019-03-09T18:42:58.726Z,97816.98
2019-03-09T18:45:28.013Z,97801.77
2019-03-09T18:47:57.381Z,97803.92
2019-03-09T18:50:26.696Z,97811.09
2019-03-09T18:52:56.088Z,97811.66
2019-03-09T18:55:25.406Z,97816.55
2019-03-09T18:57:54.875Z,97818.66
2019-03-09T19:00:24.509Z,97826.91
2019-03-09T19:02:54.256Z,97822.19
2019-03-09T19:05:23.786Z,97826.05
2019-03-09T19:07:53.235Z,97824.91
2019-03-09T19:10:22.654Z,97847.09
2019-03-09T19:12:52.036Z,97848.58
2019-03-09T19:15:23.255Z,97856.88
2019-03-09T19:17:52.601Z,97853.23
2019-03-09T19:20:21.938Z,97865.61
2019-03-09T19:22:51.248Z,97840.77
2019-03-09T19:25:20.538Z,97855.08
2019-03-09T19:27:49.831Z,97835.06
2019-03-09T19:30:19.228Z,97885.44
2019-03-09T19:32:48.505Z,97877.25
2019-03-09T19:35:18.268Z,97884.39
2019-03-09T19:37:47.566Z,97880.75
2019-03-09T19:40:18.342Z,97877.32
2019-03-09T19:42:47.718Z,97895.97
2019-03-09T19:45:17.132Z,97894.33
2019-03-09T19:47:46.757Z,97896.13
2019-03-09T19:50:18.370Z,97884.17
2019-03-09T19:52:47.696Z,97906.35
2019-03-09T19:55:17.209Z,97890.67
2019-03-09T19:57:46.545Z,97901.59
2019-03-09T20:00:16.231Z,97903.78
2019-03-09T20:02:45.595Z,97889.79
2019-03-09T20:05:15.081Z,97901.56
2019-03-09T20:07:44.355Z,97892.83
2019-03-09T20:10:14.087Z,97885.15
2019-03-09T20:12:43.589Z,97904.02
2019-03-09T20:15:14.613Z,97920.84
2019-03-09T20:17:45.717Z,97923.06
2019-03-09T20:20:15.221Z,97932.16
2019-03-09T20:22:44.544Z,97929.88
2019-03-09T20:25:13.954Z,97933.28
2019-03-09T20:27:43.520Z,97909.64
2019-03-09T20:30:13.043Z,97954.66
2019-03-09T20:32:42.411Z,97952.38
2019-03-09T20:35:11.812Z,97954.86
2019-03-09T20:37:59.180Z,97947.82
2019-03-09T20:40:28.648Z,97985.30
2019-03-09T20:42:58.056Z,97957.53
2019-03-09T20:45:27.448Z,97998.25
2019-03-09T20:47:56.831Z,98001.45
2019-03-09T20:50:26.178Z,98024.75
2019-03-09T20:52:55.687Z,98018.39
2019-03-09T20:55:25.048Z,98040.79
2019-03-09T20:57:54.310Z,98051.95
2019-03-09T21:00:23.676Z,98061.62
2019-03-09T21:02:53.416Z,98062.02
2019-03-09T21:05:22.811Z,98078.20
2019-03-09T21:07:52.263Z,98097.10
2019-03-09T21:10:21.654Z,98099.16
2019-03-09T21:12:58.867Z,98106.81
2019-03-09T21:15:28.115Z,98114.06
2019-03-09T21:17:57.406Z,98112.96
2019-03-09T21:20:26.753Z,98113.11
2019-03-09T21:22:56.508Z,98114.88
2019-03-09T21:25:25.893Z,98126.41
2019-03-09T21:27:55.184Z,98126.78
2019-03-09T21:30:24.581Z,98146.21
2019-03-09T21:32:53.818Z,98144.91
2019-03-09T21:35:23.081Z,98145.32
2019-03-09T21:37:52.470Z,98146.30
2019-03-09T21:40:21.735Z,98153.19
2019-03-09T21:42:51.151Z,98152.77
2019-03-09T21:45:20.470Z,98154.78
2019-03-09T21:47:49.743Z,98144.80
2019-03-09T21:50:19.207Z,98139.00
2019-03-09T21:52:48.559Z,98142.41
2019-03-09T21:55:18.378Z,98151.83
2019-03-09T21:57:47.651Z,98150.34
2019-03-09T22:00:17.191Z,98145.27
2019-03-09T22:02:46.496Z,98146.12
2019-03-09T22:05:16.487Z,98139.10
2019-03-09T22:07:45.897Z,98129.36
2019-03-09T22:10:15.166Z,98135.27
2019-03-09T22:12:44.858Z,98139.75
2019-03-09T22:15:14.617Z,98133.66
2019-03-09T22:17:43.945Z,98117.31
2019-03-09T22:20:13.354Z,98126.11
2019-03-09T22:22:42.750Z,98124.75
2019-03-09T22:25:12.110Z,98144.77
2019-03-09T22:27:41.566Z,98130.31
2019-03-09T22:30:12.286Z,98118.63
2019-03-09T22:32:41.792Z,98092.83
2019-03-09T22:35:12.581Z,98144.61
2019-03-09T22:37:43.881Z,98162.05
2019-03-09T22:40:13.617Z,98134.81
2019-03-09T22:42:43.327Z,98113.33
2019-03-09T22:45:16.129Z,98111.16
2019-03-09T22:47:45.553Z,98099.59
2019-03-09T22:50:15.515Z,98102.41
2019-03-09T22:52:44.786Z,98109.22
2019-03-09T22:55:14.345Z,98109.03
2019-03-09T22:57:43.787Z,98116.66
2019-03-09T23:00:17.261Z,98115.64
2019-03-09T23:02:46.973Z,98116.11
2019-03-09T23:05:16.371Z,98111.17
2019-03-09T23:07:49.006Z,98106.77
2019-03-09T23:10:18.514Z,98114.69
2019-03-09T23:12:47.813Z,98114.95
2019-03-09T23:15:17.446Z,98112.23
2019-03-09T23:17:46.933Z,98110.92
2019-03-09T23:20:16.555Z,98108.09
2019-03-09T23:22:47.910Z,98111.14
2019-03-09T23:25:17.284Z,98103.45
2019-03-09T23:27:46.772Z,98085.20
2019-03-09T23:30:17.044Z,98109.81
2019-03-09T23:32:46.499Z,98100.53
2019-03-09T23:35:16.145Z,98103.48
2019-03-09T23:37:45.868Z,98099.62
2019-03-09T23:40:15.757Z,98100.75
2019-03-09T23:42:45.061Z,98098.81
2019-03-09T23:45:15.206Z,98104.17
2019-03-09T23:47:44.772Z,98093.94
2019-03-09T23:50:14.823Z,98106.89
2019-03-09T23:52:44.875Z,98105.75
2019-03-09T23:55:21.832Z,98093.72
2019-03-09T23:57:45.980Z,98099.86
